LFRK/CFR METAR and TAF weather

Enter ICAO airport designator
Station Type Date Time Source
LFRK METAR 2019/04/19 09:00 UTC NOAA

LFRK 190900Z AUTO 01003KT 340V040 CAVOK 17/10 Q1025 NOSIG


Station Type Date Time Source
LFRK Decoded METAR 2019/04/19 09:00 UTC NOAA

Caen, France (LFRK) 49-11N 000-27W 67M
Apr 19, 2019 - 05:00 AM EDT / 2019.04.19 0900 UTC
Wind: from the N (010 degrees) at 3 MPH (3 KT) (direction variable):0
Visibility: greater than 7 mile(s):0
Temperature: 62 F (17 C)
Dew Point: 50 F (10 C)
Relative Humidity: 63%
Pressure (altimeter): 30.27 in. Hg (1025 hPa)
ob: LFRK 190900Z AUTO 01003KT 340V040 CAVOK 17/10 Q1025 NOSIG
cycle: 9

Station Type Date Time Source
LFRK TAF UTC NOAA

Error!

Example: see airport list